Harmon, Illinois
Current Conditions -  °F | °C
As of 1:55 PM on Friday 24 Oct 2014 (Local Time) from KSQI Reporting Station
Clear Clear  
Wind Chill: 61°   Ceiling: Unl
Heat Index: 61°   Visibility: 10mi
Dew Point: 54°   Wind: 5mph
Humidity: 77%   Direction: 240°WSW
Pressure: 30.01"   Gusts: NA
Location:  41.72°N, 89.55°W
Report Text: KSQI 241855Z AUTO 24004KT 10SM CLR 16/12 A3001 RMK AO1
Loading
Personal Weather Stations






























Interactive Weather Map New forecast layout! Learn more

10-Day Weather Forecast

Advertisements
Track Severe Weather on mobile